Terminal Aerodrome Forecast
Issued by NWS Billings, MT

Home | Current Version | Previous Version | Text Only | Print | Product List | Glossary On
Versions: 1 2 3 4 5 6 7 8 9 10 11 12 13 14 15 16 17 18 19 20 21 22 23 24 25 26 27 28 29 30 31 32 33
000
FTUS45 KBYZ 061532 AAB
TAFSHR
TAF AMD
KSHR 061532Z 0616/0712 02007KT 2SM BR OVC002
      TEMPO 0616/0618 3SM BR OVC005
     FM061800 VRB04KT P6SM BKN035
     FM070000 VRB03KT P6SM SKC=

USA.gov is the U.S. government's official web portal to all federal, state and local government web resources and services.